Terminal Aerodrome Forecast
Issued by NWS

Home | Current Version | Previous Version | Text Only | Print | Product List | Glossary On
Versions: 1 2 3 4 5 6 7 8 9 10 11 12 13 14 15 16 17 18 19 20 21 22 23 24 25
000
FTUS46 KLOX 220800 AAA
TAFLAX
TAF AMD
KLAX 220856Z 2209/2312 06006KT P6SM BKN200 WS015/01025KT
     FM221200 04006KT 6SM BR SCT200
     FM221700 VRB03KT P6SM BKN200
     FM222100 26007KT P6SM SCT200
     FM230300 VRB03KT P6SM SKC
     FM230900 04006KT P6SM SKC=

USA.gov is the U.S. government's official web portal to all federal, state and local government web resources and services.